Time;durP1;ratioP1;P1;durP2;ratioP2;P2;SDS_P1;SDS_P2;PMS_P1;PMS_P2;Temp;Humidity;BMP_temperature;BMP_pressure;BME280_temperature;BME280_humidity;BME280_pressure;Samples;Min_cycle;Max_cycle;Signal;HPM_P1;HPM_P2
2021/10/05 00:01:04;;;;;;;;;3.75;2.25;;;;;15.86;79.70;100761.09;5080354;27;45242;-62
2021/10/05 00:03:29;;;;;;;;;2.00;2.00;;;;;15.84;79.03;100754.25;5079970;27;45213;-62
2021/10/05 00:05:55;;;;;;;;;5.00;2.00;;;;;15.81;80.43;100752.59;5080507;27;45396;-62
2021/10/05 00:08:20;;;;;;;;;1.75;1.75;;;;;15.77;80.15;100751.06;5080048;27;45605;-62
2021/10/05 00:10:45;;;;;;;;;2.25;2.00;;;;;15.73;79.86;100746.91;5080353;27;45165;-62
2021/10/05 00:13:11;;;;;;;;;2.25;2.25;;;;;15.69;80.34;100750.59;5079977;27;46251;-62
2021/10/05 00:15:36;;;;;;;;;2.25;2.25;;;;;15.63;81.46;100738.66;5080157;27;45208;-62
2021/10/05 00:18:02;;;;;;;;;2.00;2.00;;;;;15.59;80.47;100744.94;5079581;28;45276;-62
2021/10/05 00:20:27;;;;;;;;;1.75;1.00;;;;;15.57;81.47;100738.88;5079191;27;45387;-63
2021/10/05 00:22:53;;;;;;;;;3.00;2.00;;;;;15.56;80.27;100726.72;5079900;27;45344;-62
2021/10/05 00:25:18;;;;;;;;;3.00;3.00;;;;;15.55;81.04;100734.66;5079929;28;45353;-72
2021/10/05 00:27:44;;;;;;;;;2.50;2.00;;;;;15.50;81.70;100725.25;5080063;27;45335;-72
2021/10/05 00:30:09;;;;;;;;;2.50;2.25;;;;;15.50;81.82;100730.50;5079896;27;45299;-69
2021/10/05 00:32:35;;;;;;;;;3.75;1.75;;;;;15.49;82.07;100726.19;5078483;27;46139;-70
2021/10/05 00:35:00;;;;;;;;;3.00;2.50;;;;;15.47;82.13;100727.19;5080029;27;45307;-70
2021/10/05 00:37:26;;;;;;;;;2.00;2.00;;;;;15.45;82.07;100727.25;5077478;27;45358;-65
2021/10/05 00:39:51;;;;;;;;;2.00;2.00;;;;;15.39;82.20;100717.03;5074777;28;45408;-62
2021/10/05 00:42:16;;;;;;;;;1.75;1.75;;;;;15.39;82.64;100724.91;5079678;27;46093;-63
2021/10/05 00:44:42;;;;;;;;;3.50;2.25;;;;;15.36;82.78;100729.44;5079090;27;45321;-64
2021/10/05 00:47:10;;;;;;;;;3.75;1.50;;;;;15.35;82.86;100715.50;5079833;27;45317;-64
2021/10/05 00:49:37;;;;;;;;;4.00;2.00;;;;;15.34;83.15;100723.44;5079896;28;45304;-64
2021/10/05 00:52:04;;;;;;;;;5.25;3.25;;;;;15.27;83.41;100709.78;5078200;28;47337;-64
2021/10/05 00:54:32;;;;;;;;;3.50;3.00;;;;;15.23;83.39;100705.63;5079058;27;45657;-64
2021/10/05 00:56:57;;;;;;;;;2.00;2.00;;;;;15.23;82.96;100702.16;5079845;28;45386;-64
2021/10/05 00:59:23;;;;;;;;;2.00;2.00;;;;;15.18;84.46;100699.75;5069632;27;45263;-65
2021/10/05 01:01:48;;;;;;;;;1.25;1.25;;;;;15.16;83.45;100698.97;5076060;28;46177;-63
2021/10/05 01:04:14;;;;;;;;;6.25;1.25;;;;;15.16;83.39;100694.56;5069229;27;45640;-64
2021/10/05 01:06:57;;;;;;;;;3.00;2.00;;;;;15.13;84.50;100689.50;5075979;28;45239;-63
2021/10/05 01:09:22;;;;;;;;;2.50;2.50;;;;;15.08;84.91;100688.88;5079215;27;45301;-68
2021/10/05 01:11:48;;;;;;;;;3.00;2.75;;;;;15.05;85.36;100685.56;5079276;27;46029;-65
2021/10/05 01:14:14;;;;;;;;;2.00;2.00;;;;;15.00;85.68;100685.75;5079634;28;45434;-67
2021/10/05 01:16:39;;;;;;;;;2.50;1.00;;;;;14.97;85.38;100685.03;5079353;27;45503;-66
2021/10/05 01:19:05;;;;;;;;;4.00;1.25;;;;;15.00;85.31;100683.13;5079186;27;45317;-67
2021/10/05 01:21:31;;;;;;;;;2.00;0.75;;;;;15.00;85.06;100671.81;5079108;27;47124;-67
2021/10/05 01:24:11;;;;;;;;;2.50;1.00;;;;;14.99;86.14;100668.34;5077519;28;45507;-67
2021/10/05 01:26:37;;;;;;;;;1.25;1.00;;;;;14.98;84.80;100661.41;5066980;28;45367;-66
2021/10/05 01:29:04;;;;;;;;;3.75;1.00;;;;;14.97;86.72;100658.88;5079206;27;45382;-66
2021/10/05 01:31:32;;;;;;;;;3.50;2.00;;;;;14.93;85.72;100657.31;5080636;27;45349;-66
2021/10/05 01:33:59;;;;;;;;;0.25;0.25;;;;;14.92;86.17;100656.47;5082397;27;45415;-66
2021/10/05 01:36:25;;;;;;;;;3.00;3.00;;;;;14.93;86.21;100652.09;5082960;27;45326;-65
2021/10/05 01:38:50;;;;;;;;;0.00;0.00;;;;;14.90;86.11;100638.22;5082077;27;45255;-65
2021/10/05 01:41:16;;;;;;;;;1.00;1.00;;;;;14.91;85.89;100633.84;5082628;27;46035;-65
2021/10/05 01:43:41;;;;;;;;;3.00;2.00;;;;;14.87;86.37;100625.31;5082541;27;45325;-64
2021/10/05 01:46:13;;;;;;;;;2.25;2.00;;;;;14.89;86.91;100631.31;5081697;27;45331;-68
2021/10/05 01:48:38;;;;;;;;;3.00;2.00;;;;;14.86;85.69;100621.00;5082422;27;45343;-69
2021/10/05 01:51:04;;;;;;;;;2.00;2.00;;;;;14.86;86.16;100614.91;5082153;27;46016;-68
2021/10/05 01:53:30;;;;;;;;;2.00;2.00;;;;;14.81;86.96;100599.41;5081785;27;45503;-68
2021/10/05 01:55:55;;;;;;;;;1.25;1.25;;;;;14.79;86.72;100606.47;5082445;27;45377;-68
2021/10/05 01:58:21;;;;;;;;;2.75;2.00;;;;;14.74;87.25;100597.16;5082227;28;45586;-67
2021/10/05 02:00:46;;;;;;;;;3.50;2.75;;;;;14.69;87.56;100592.16;5082256;27;45905;-64
2021/10/05 02:03:14;;;;;;;;;2.00;2.00;;;;;14.67;87.44;100593.16;5082131;27;45313;-64
2021/10/05 02:05:41;;;;;;;;;2.00;1.00;;;;;14.66;88.01;100599.28;5082437;27;45432;-67
2021/10/05 02:08:07;;;;;;;;;2.00;2.00;;;;;14.63;87.92;100592.44;5081828;27;45403;-67
2021/10/05 02:10:32;;;;;;;;;2.25;1.00;;;;;14.60;89.40;100571.63;5082076;28;45256;-68
2021/10/05 02:12:58;;;;;;;;;1.00;1.00;;;;;14.54;89.43;100577.16;5081972;27;45419;-68
2021/10/05 02:15:23;;;;;;;;;3.00;1.25;;;;;14.46;90.05;100568.84;5082279;27;45264;-67
2021/10/05 02:17:48;;;;;;;;;5.50;1.25;;;;;14.46;88.84;100556.59;5081160;27;45323;-68
2021/10/05 02:20:14;;;;;;;;;1.25;1.25;;;;;14.48;89.85;100556.53;5082057;27;45626;-67
2021/10/05 02:22:39;;;;;;;;;2.50;1.00;;;;;14.46;88.85;100551.38;5081736;27;45371;-66
2021/10/05 02:25:05;;;;;;;;;1.75;1.00;;;;;14.45;89.21;100547.06;5081746;28;45306;-66
2021/10/05 02:27:31;;;;;;;;;2.00;2.00;;;;;14.47;89.56;100547.00;5081640;27;45487;-66
2021/10/05 02:29:56;;;;;;;;;2.00;2.00;;;;;14.49;89.29;100545.16;5081947;27;45474;-65
2021/10/05 02:32:22;;;;;;;;;2.25;1.50;;;;;14.48;89.51;100543.47;5080348;27;45320;-64
2021/10/05 02:34:47;;;;;;;;;2.00;1.00;;;;;14.48;89.71;100538.22;5082004;27;45295;-65
2021/10/05 02:37:13;;;;;;;;;2.75;2.75;;;;;14.48;89.66;100535.63;5081570;27;45536;-65
2021/10/05 02:39:39;;;;;;;;;4.50;2.00;;;;;14.47;89.39;100513.00;5080930;27;46343;-64
2021/10/05 02:42:05;;;;;;;;;2.25;0.75;;;;;14.47;89.88;100507.78;5080575;27;45757;-64
2021/10/05 02:44:30;;;;;;;;;2.00;1.75;;;;;14.46;89.71;100500.84;5081188;27;45415;-64
2021/10/05 02:46:56;;;;;;;;;2.50;2.00;;;;;14.43;90.22;100506.19;5081582;27;45433;-64
2021/10/05 02:49:21;;;;;;;;;1.50;1.50;;;;;14.43;90.08;100503.59;5081597;28;46606;-64
2021/10/05 02:51:46;;;;;;;;;3.00;1.50;;;;;14.42;89.90;100502.75;5081232;27;45225;-65
2021/10/05 02:54:12;;;;;;;;;4.00;1.25;;;;;14.40;90.33;100493.25;5080867;27;45365;-64
2021/10/05 02:56:37;;;;;;;;;2.00;2.00;;;;;14.40;90.48;100482.78;5080907;28;45347;-65
2021/10/05 02:59:03;;;;;;;;;1.00;1.00;;;;;14.40;90.42;100488.03;5081348;27;46019;-67
2021/10/05 03:01:28;;;;;;;;;2.25;2.00;;;;;14.38;90.75;100479.41;5081031;27;45207;-61
2021/10/05 03:03:53;;;;;;;;;1.00;1.00;;;;;14.38;90.51;100475.03;5081524;27;45400;-67
2021/10/05 03:06:19;;;;;;;;;2.50;0.50;;;;;14.41;90.80;100482.72;5081265;27;45528;-66
2021/10/05 03:08:44;;;;;;;;;1.75;0.50;;;;;14.45;91.85;100479.09;5080734;27;46239;-67
2021/10/05 03:11:10;;;;;;;;;3.75;2.00;;;;;14.45;90.92;100462.56;5080876;27;46402;-67
2021/10/05 03:13:37;;;;;;;;;4.00;1.50;;;;;14.46;90.96;100472.09;5080708;27;45508;-67
2021/10/05 03:16:06;;;;;;;;;1.75;1.75;;;;;14.48;91.33;100475.47;5078825;28;45457;-66
2021/10/05 03:18:32;;;;;;;;;3.00;1.00;;;;;14.52;91.36;100474.41;5079843;27;45423;-66
2021/10/05 03:20:57;;;;;;;;;3.75;2.00;;;;;14.52;92.14;100463.94;5079563;28;45283;-66
2021/10/05 03:23:23;;;;;;;;;3.75;1.00;;;;;14.55;92.09;100474.25;5079288;27;45315;-67
2021/10/05 03:25:48;;;;;;;;;5.50;3.25;;;;;14.57;91.71;100464.56;5080525;27;45165;-66
2021/10/05 03:28:14;;;;;;;;;2.00;2.00;;;;;14.61;91.84;100458.25;5081135;27;46305;-67
2021/10/05 03:30:39;;;;;;;;;2.50;1.00;;;;;14.61;91.71;100440.78;5080573;27;45244;-67
2021/10/05 03:33:05;;;;;;;;;3.00;3.00;;;;;14.63;92.25;100440.75;5079857;27;45341;-66
2021/10/05 03:35:30;;;;;;;;;2.00;2.00;;;;;14.66;91.25;100427.53;5078530;27;45718;-66
2021/10/05 03:37:55;;;;;;;;;1.50;1.50;;;;;14.70;91.50;100431.66;5078015;27;45330;-67
2021/10/05 03:40:21;;;;;;;;;4.00;1.00;;;;;14.73;91.78;100417.59;5077959;27;45407;-66
2021/10/05 03:42:46;;;;;;;;;5.50;2.50;;;;;14.73;92.54;100418.44;5078154;27;45470;-65
2021/10/05 03:45:12;;;;;;;;;1.00;1.00;;;;;14.75;91.94;100397.44;5079277;27;45279;-66
2021/10/05 03:47:38;;;;;;;;;3.00;3.00;;;;;14.80;91.14;100403.28;5079660;27;46135;-65
2021/10/05 03:50:05;;;;;;;;;2.00;2.00;;;;;14.82;90.97;100399.69;5080288;27;45316;-65
2021/10/05 03:52:30;;;;;;;;;2.00;2.00;;;;;14.87;91.10;100400.28;5080589;28;45246;-66
2021/10/05 03:54:56;;;;;;;;;5.00;3.00;;;;;14.90;90.74;100400.13;5079496;27;45525;-65
2021/10/05 03:57:21;;;;;;;;;2.50;2.00;;;;;14.85;91.76;100398.69;5080226;27;46946;-66
2021/10/05 03:59:47;;;;;;;;;4.00;4.00;;;;;14.80;91.64;100390.19;5078802;28;45252;-66
2021/10/05 04:02:12;;;;;;;;;4.75;2.25;;;;;14.81;91.33;100397.97;5080155;27;45303;-66
2021/10/05 04:04:37;;;;;;;;;5.75;2.00;;;;;14.83;90.81;100395.28;5080083;27;45507;-66
2021/10/05 04:07:03;;;;;;;;;1.00;1.00;;;;;14.88;91.37;100390.66;5080258;27;45277;-65
2021/10/05 04:09:28;;;;;;;;;2.00;2.00;;;;;14.93;90.76;100388.66;5079716;28;45195;-65
2021/10/05 04:11:54;;;;;;;;;1.25;1.25;;;;;14.94;90.92;100386.88;5080531;27;45515;-65
2021/10/05 04:14:19;;;;;;;;;2.50;2.50;;;;;14.91;91.14;100383.50;5080074;27;45418;-64
2021/10/05 04:16:44;;;;;;;;;4.50;2.25;;;;;14.90;91.17;100384.44;5080088;27;45355;-65
2021/10/05 04:19:10;;;;;;;;;5.75;3.50;;;;;14.94;90.73;100360.72;5080024;27;45291;-65
2021/10/05 04:21:35;;;;;;;;;4.00;4.00;;;;;14.97;90.67;100355.31;5080186;27;45310;-65
2021/10/05 04:24:00;;;;;;;;;7.75;5.00;;;;;14.98;90.86;100355.25;5079290;27;45455;-66
2021/10/05 04:26:26;;;;;;;;;7.50;5.25;;;;;14.99;90.82;100356.09;5079874;27;45417;-66
2021/10/05 04:28:51;;;;;;;;;8.75;8.00;;;;;14.99;90.62;100343.84;5079686;27;45447;-65
2021/10/05 04:31:17;;;;;;;;;10.25;7.50;;;;;14.98;90.71;100344.78;5079074;27;45521;-65
2021/10/05 04:33:42;;;;;;;;;4.00;3.00;;;;;15.00;90.90;100348.16;5079561;27;45417;-64
2021/10/05 04:36:07;;;;;;;;;11.00;9.00;;;;;14.96;90.50;100336.16;5079615;27;45557;-64
2021/10/05 04:38:33;;;;;;;;;6.75;6.75;;;;;14.95;90.49;100321.38;5079499;27;45358;-64
2021/10/05 04:40:58;;;;;;;;;5.75;5.25;;;;;14.94;90.03;100329.31;5079653;27;45318;-64
2021/10/05 04:43:23;;;;;;;;;6.75;5.00;;;;;14.95;90.74;100316.16;5079614;27;45543;-66
2021/10/05 04:45:49;;;;;;;;;6.00;4.00;;;;;14.95;90.65;100323.16;5078337;27;45995;-63
2021/10/05 04:48:14;;;;;;;;;5.25;4.00;;;;;14.98;90.83;100313.38;5079520;27;45259;-62
2021/10/05 04:50:40;;;;;;;;;6.00;3.25;;;;;14.99;90.53;100307.22;5078232;27;45424;-63
2021/10/05 04:53:06;;;;;;;;;3.00;3.00;;;;;15.02;90.63;100317.53;5077053;27;45638;-66
2021/10/05 04:55:31;;;;;;;;;2.00;2.00;;;;;15.02;90.94;100275.69;5077078;27;46793;-69
2021/10/05 04:58:00;;;;;;;;;3.25;3.25;;;;;14.99;90.56;100304.59;5077822;27;45480;-68
2021/10/05 05:00:26;;;;;;;;;3.50;2.00;;;;;14.98;90.78;100278.50;5076563;27;45484;-67
2021/10/05 05:02:51;;;;;;;;;25.50;18.00;;;;;14.99;90.65;100277.59;5077200;27;45697;-66
2021/10/05 05:05:16;;;;;;;;;7.00;6.00;;;;;15.03;90.22;100281.75;5078784;27;45413;-65
2021/10/05 05:07:42;;;;;;;;;4.00;2.75;;;;;15.06;90.31;100258.03;5081493;27;45405;-65
2021/10/05 05:10:08;;;;;;;;;3.00;3.00;;;;;15.04;90.40;100265.13;5080208;28;45492;-65
2021/10/05 05:12:33;;;;;;;;;4.25;3.00;;;;;15.03;90.15;100271.28;5082055;27;45450;-66
2021/10/05 05:14:59;;;;;;;;;5.75;3.00;;;;;14.98;90.83;100263.66;5081475;27;46751;-66
2021/10/05 05:17:25;;;;;;;;;7.25;3.00;;;;;14.95;90.83;100253.34;5082164;27;45656;-65
2021/10/05 05:19:50;;;;;;;;;3.50;2.50;;;;;14.94;90.93;100254.28;5082479;27;45271;-66
2021/10/05 05:22:16;;;;;;;;;1.50;1.25;;;;;14.94;91.11;100253.44;5082416;27;45466;-66
2021/10/05 05:24:41;;;;;;;;;4.00;2.00;;;;;14.90;91.47;100243.13;5081551;27;47078;-66
2021/10/05 05:27:06;;;;;;;;;4.00;2.50;;;;;14.89;91.05;100238.00;5081975;27;45131;-66
2021/10/05 05:29:32;;;;;;;;;3.75;3.75;;;;;14.88;91.64;100223.22;5082016;27;45540;-64
2021/10/05 05:31:58;;;;;;;;;2.75;2.00;;;;;14.87;91.43;100224.16;5081357;27;45443;-63
2021/10/05 05:34:27;;;;;;;;;5.00;2.75;;;;;14.88;91.76;100226.69;5081754;27;45308;-66
2021/10/05 05:36:53;;;;;;;;;3.00;2.00;;;;;14.88;91.40;100223.22;5081953;27;45511;-66
2021/10/05 05:39:19;;;;;;;;;6.00;3.00;;;;;14.86;91.75;100212.84;5081909;27;45384;-65
2021/10/05 05:41:47;;;;;;;;;6.00;4.00;;;;;14.78;92.26;100198.47;5082514;28;45468;-69
2021/10/05 05:44:14;;;;;;;;;2.75;2.75;;;;;14.78;92.78;100201.94;5081605;27;46328;-68
2021/10/05 05:46:41;;;;;;;;;5.75;3.00;;;;;14.80;91.76;100202.69;5082363;27;45365;-70
2021/10/05 05:49:07;;;;;;;;;5.25;4.00;;;;;14.82;91.80;100203.47;5082225;27;45290;-68
2021/10/05 05:51:33;;;;;;;;;3.25;2.00;;;;;14.85;91.92;100195.47;5081954;27;45449;-68
2021/10/05 05:53:58;;;;;;;;;4.25;4.00;;;;;14.89;92.31;100204.81;5080818;27;47239;-68
2021/10/05 05:56:24;;;;;;;;;3.50;3.50;;;;;14.91;92.06;100202.13;5081999;28;45357;-68
2021/10/05 05:58:52;;;;;;;;;2.75;2.75;;;;;14.88;92.18;100192.69;5081974;27;45250;-67
2021/10/05 06:01:21;;;;;;;;;7.00;3.00;;;;;14.85;92.26;100190.22;5081773;27;45551;-66
2021/10/05 06:03:49;;;;;;;;;4.00;2.75;;;;;14.84;92.33;100185.94;5081161;28;47235;-67
2021/10/05 06:06:15;;;;;;;;;5.25;3.00;;;;;14.88;92.27;100189.22;5081820;27;45342;-67
2021/10/05 06:08:41;;;;;;;;;4.75;3.25;;;;;14.90;92.05;100197.81;5081329;27;45210;-67
2021/10/05 06:11:06;;;;;;;;;5.75;4.00;;;;;14.97;91.92;100195.72;5081715;27;45449;-70
2021/10/05 06:13:32;;;;;;;;;2.00;2.00;;;;;14.95;91.62;100190.56;5081015;27;45243;-67
2021/10/05 06:15:57;;;;;;;;;5.75;3.25;;;;;14.92;91.77;100185.50;5081173;27;45266;-68
2021/10/05 06:18:22;;;;;;;;;4.25;4.25;;;;;14.96;91.86;100183.56;5079615;27;45165;-66
2021/10/05 06:20:48;;;;;;;;;8.00;5.00;;;;;14.99;91.55;100159.84;5081453;27;45256;-68
2021/10/05 06:23:13;;;;;;;;;4.50;3.00;;;;;14.98;91.45;100163.38;5079930;28;48210;-67
2021/10/05 06:25:42;;;;;;;;;2.50;2.50;;;;;15.05;91.80;100160.38;5081339;27;45240;-64
2021/10/05 06:28:08;;;;;;;;;3.00;3.00;;;;;15.04;91.83;100155.22;5081722;27;45331;-66
2021/10/05 06:30:34;;;;;;;;;6.00;3.00;;;;;15.09;91.56;100142.72;5080813;27;45391;-65
2021/10/05 06:32:59;;;;;;;;;4.75;3.00;;;;;15.13;91.68;100141.59;5079969;27;45325;-65
2021/10/05 06:35:27;;;;;;;;;4.50;3.00;;;;;15.14;91.49;100143.28;5081185;27;45402;-73
2021/10/05 06:37:54;;;;;;;;;4.75;4.75;;;;;15.16;91.30;100134.41;5079594;27;45417;-71
2021/10/05 06:40:22;;;;;;;;;5.00;5.00;;;;;15.18;91.33;100136.94;5089316;27;45266;-72
2021/10/05 06:42:47;;;;;;;;;6.00;5.00;;;;;15.16;91.92;100133.56;5079599;28;46191;-74
2021/10/05 06:45:12;;;;;;;;;6.25;5.00;;;;;15.17;92.14;100143.13;5075822;27;45510;-72
2021/10/05 06:47:38;;;;;;;;;6.00;6.00;;;;;15.20;91.87;100151.63;5077784;28;45357;-75
2021/10/05 06:50:05;;;;;;;;;4.75;4.75;;;;;15.17;92.42;100151.81;5073513;27;46229;-68
2021/10/05 06:52:31;;;;;;;;;5.00;5.00;;;;;15.14;92.91;100161.63;5080499;27;45350;-66
2021/10/05 06:54:57;;;;;;;;;7.00;6.25;;;;;15.10;93.12;100147.00;5076805;27;45952;-65
2021/10/05 06:57:23;;;;;;;;;6.75;5.25;;;;;15.03;94.39;100153.53;5080914;27;45357;-66
2021/10/05 06:59:48;;;;;;;;;6.75;6.25;;;;;15.01;94.38;100140.50;5080607;27;45308;-72
2021/10/05 07:02:13;;;;;;;;;7.50;5.50;;;;;15.01;94.78;100145.72;5075856;27;45184;-67
2021/10/05 07:04:39;;;;;;;;;10.75;6.25;;;;;14.91;95.01;100119.25;5071969;28;45336;-75
2021/10/05 07:07:04;;;;;;;;;4.25;3.00;;;;;14.94;95.54;100133.94;5080758;27;46211;-72
2021/10/05 07:09:30;;;;;;;;;10.00;9.00;;;;;14.91;95.40;100132.31;5080404;27;45468;-61
2021/10/05 07:11:55;;;;;;;;;7.50;7.00;;;;;14.90;95.50;100121.94;5080976;27;45374;-62
2021/10/05 07:14:21;;;;;;;;;10.75;7.75;;;;;14.89;95.98;100115.88;5071387;28;45388;-64
2021/10/05 07:16:46;;;;;;;;;9.75;7.50;;;;;14.93;95.92;100110.47;5080436;27;45417;-62
2021/10/05 07:19:12;;;;;;;;;10.50;8.50;;;;;14.94;95.95;100109.53;5079924;27;45340;-62
2021/10/05 07:21:37;;;;;;;;;8.00;8.00;;;;;14.93;96.60;100107.84;5080587;27;45933;-62
2021/10/05 07:24:03;;;;;;;;;9.00;8.75;;;;;14.93;96.51;100108.69;5080170;27;45331;-63
2021/10/05 07:26:29;;;;;;;;;8.50;7.75;;;;;14.96;96.71;100105.06;5080239;27;45286;-61
2021/10/05 07:28:55;;;;;;;;;5.25;3.75;;;;;14.93;97.73;100107.84;5077455;27;45553;-61
2021/10/05 07:31:20;;;;;;;;;10.25;8.75;;;;;14.90;97.21;100075.69;5079516;27;46277;-60
2021/10/05 07:33:45;;;;;;;;;11.50;10.25;;;;;14.93;97.95;100079.06;5079944;27;45215;-60
2021/10/05 07:36:12;;;;;;;;;9.00;7.00;;;;;14.95;97.84;100080.66;5080163;27;45299;-63
2021/10/05 07:38:38;;;;;;;;;11.00;6.75;;;;;14.94;98.12;100065.06;5079972;27;45266;-61
2021/10/05 07:41:04;;;;;;;;;6.75;5.75;;;;;14.95;98.81;100064.13;5080197;28;46268;-61
2021/10/05 07:43:30;;;;;;;;;7.00;4.25;;;;;14.90;98.18;100060.00;5079272;28;45839;-62
2021/10/05 07:45:58;;;;;;;;;4.50;4.50;;;;;14.82;98.63;100049.13;5079532;27;45243;-61
2021/10/05 07:48:24;;;;;;;;;6.00;4.00;;;;;14.83;99.26;100048.19;5080350;27;45349;-63
2021/10/05 07:50:50;;;;;;;;;6.25;4.00;;;;;14.81;99.19;100052.66;5079688;27;45291;-63
2021/10/05 07:53:15;;;;;;;;;4.25;4.00;;;;;14.80;99.00;100047.50;5079660;27;45280;-64
2021/10/05 07:55:41;;;;;;;;;4.50;4.25;;;;;14.79;99.15;100037.97;5079696;27;45555;-66
2021/10/05 07:58:06;;;;;;;;;4.00;4.00;;;;;14.72;100.00;100029.63;5079375;27;45485;-62
2021/10/05 08:00:31;;;;;;;;;3.25;3.25;;;;;14.73;100.00;100013.00;5079734;27;45255;-60
2021/10/05 08:02:57;;;;;;;;;4.25;3.75;;;;;14.69;100.00;100016.75;5073719;27;45484;-60
2021/10/05 08:05:22;;;;;;;;;1.75;1.75;;;;;14.61;100.00;100021.53;5077017;28;45338;-62
2021/10/05 08:07:58;;;;;;;;;5.50;3.25;;;;;14.58;100.00;100024.31;5079403;27;45356;-61
2021/10/05 08:10:24;;;;;;;;;3.00;3.00;;;;;14.62;100.00;100015.41;5066374;28;46819;-62
2021/10/05 08:12:49;;;;;;;;;3.75;3.75;;;;;14.65;100.00;100002.16;5079993;27;45338;-61
2021/10/05 08:15:15;;;;;;;;;4.50;3.00;;;;;14.64;100.00;100020.53;5080061;27;45492;-62
2021/10/05 08:17:40;;;;;;;;;2.00;2.00;;;;;14.68;100.00;100029.91;5079697;27;45444;-63
2021/10/05 08:20:06;;;;;;;;;2.25;2.25;;;;;14.82;100.00;100030.81;5080051;27;46237;-64
2021/10/05 08:22:33;;;;;;;;;3.00;3.00;;;;;15.66;100.00;100025.13;5079436;27;45286;-63
2021/10/05 08:24:59;;;;;;;;;3.75;2.00;;;;;14.93;100.00;100024.13;5079925;28;45435;-61
2021/10/05 08:27:24;;;;;;;;;3.50;2.00;;;;;14.76;100.00;100035.53;5079722;27;45193;-62
2021/10/05 08:29:52;;;;;;;;;2.00;2.00;;;;;15.07;100.00;100013.72;5079993;27;46192;-62
2021/10/05 08:32:17;;;;;;;;;2.00;2.00;;;;;15.10;100.00;100006.53;5074049;28;45303;-62
2021/10/05 08:34:42;;;;;;;;;6.25;2.00;;;;;15.00;100.00;100002.75;5078804;27;45171;-61
2021/10/05 08:37:08;;;;;;;;;3.50;2.50;;;;;15.22;100.00;100005.00;5071744;27;45446;-63
2021/10/05 08:39:34;;;;;;;;;2.50;2.00;;;;;17.41;100.00;100007.84;5078268;28;45336;-62
2021/10/05 08:42:01;;;;;;;;;1.00;1.00;;;;;19.78;96.00;99987.13;5082493;27;45405;-62
2021/10/05 08:44:26;;;;;;;;;4.25;2.25;;;;;20.52;97.34;100000.66;5082500;27;45303;-63
2021/10/05 08:46:53;;;;;;;;;3.25;1.75;;;;;20.05;99.07;99992.91;5083211;28;45217;-63
2021/10/05 08:49:20;;;;;;;;;1.50;1.50;;;;;21.89;94.37;99993.63;5080803;27;45499;-63
2021/10/05 08:51:46;;;;;;;;;3.00;3.00;;;;;20.18;98.81;100000.69;5081470;28;45283;-63
2021/10/05 08:54:12;;;;;;;;;4.00;2.00;;;;;21.56;89.56;99969.09;5082663;28;45254;-64
2021/10/05 08:56:40;;;;;;;;;5.00;2.00;;;;;16.60;100.00;99992.16;5082538;28;45409;-64
2021/10/05 08:59:05;;;;;;;;;2.25;1.75;;;;;15.70;98.61;99982.94;5082401;27;46357;-63
2021/10/05 09:01:34;;;;;;;;;1.50;1.00;;;;;15.48;99.61;100016.53;5082591;27;45376;-63
2021/10/05 09:04:02;;;;;;;;;2.00;2.00;;;;;15.35;100.00;100023.44;5083161;27;45260;-67
2021/10/05 09:06:27;;;;;;;;;2.00;2.00;;;;;15.18;100.00;100045.34;5078771;27;45429;-61
2021/10/05 09:08:53;;;;;;;;;0.50;0.50;;;;;14.97;100.00;100046.56;5082648;27;46256;-60
2021/10/05 09:11:20;;;;;;;;;1.00;1.00;;;;;14.90;100.00;100043.47;5082661;27;45602;-60
2021/10/05 09:13:50;;;;;;;;;1.00;1.00;;;;;14.86;100.00;100047.19;5083144;27;45377;-60
2021/10/05 09:16:28;;;;;;;;;1.00;1.00;;;;;14.73;100.00;100065.31;5081697;27;45477;-62
2021/10/05 09:18:56;;;;;;;;;1.50;1.00;;;;;14.61;100.00;100058.13;5073625;28;45224;-61
2021/10/05 09:21:24;;;;;;;;;1.00;0.75;;;;;14.66;100.00;100074.44;5082528;27;45261;-61
2021/10/05 09:23:59;;;;;;;;;0.00;0.00;;;;;14.59;100.00;100083.53;5082121;27;45149;-60
2021/10/05 09:26:44;;;;;;;;;2.00;1.50;;;;;14.58;100.00;100081.84;5082778;27;45462;-63
2021/10/05 09:29:10;;;;;;;;;1.00;1.00;;;;;14.59;99.50;100096.63;5082312;27;46366;-61
2021/10/05 09:32:05;;;;;;;;;0.50;0.50;;;;;14.67;100.00;100098.81;5080247;27;45645;-61
2021/10/05 09:34:36;;;;;;;;;1.00;1.00;;;;;14.78;100.00;100104.31;5080467;28;45239;-61
2021/10/05 09:37:09;;;;;;;;;5.00;4.00;;;;;14.87;99.82;100099.41;5082468;28;45460;-62
2021/10/05 09:39:40;;;;;;;;;0.50;0.00;;;;;15.03;99.19;100114.28;5081048;28;45438;-77
2021/10/05 09:42:06;;;;;;;;;1.25;1.25;;;;;15.16;98.38;100112.63;5081998;27;45205;-74
2021/10/05 09:44:32;;;;;;;;;4.50;1.25;;;;;15.24;97.83;100118.31;5081609;27;45515;-70
2021/10/05 09:46:57;;;;;;;;;2.00;1.50;;;;;15.26;98.05;100121.69;5082015;28;45233;-70
2021/10/05 09:49:24;;;;;;;;;2.50;1.50;;;;;15.26;97.09;100126.91;5082309;27;46424;-67
2021/10/05 09:51:57;;;;;;;;;3.00;3.00;;;;;15.25;96.46;100135.69;5081672;28;45638;-66
2021/10/05 09:54:24;;;;;;;;;5.25;2.00;;;;;15.23;96.26;100144.56;5087852;27;45316;-67
2021/10/05 09:56:50;;;;;;;;;3.00;2.00;;;;;15.26;96.80;100152.25;5081761;27;45568;-68
2021/10/05 09:59:15;;;;;;;;;1.00;0.00;;;;;15.29;95.88;100142.44;5081851;27;45440;-68
2021/10/05 10:01:41;;;;;;;;;1.00;1.00;;;;;15.37;95.69;100155.94;5079964;28;45877;-68
2021/10/05 10:04:07;;;;;;;;;1.50;1.50;;;;;15.44;95.73;100154.66;5081922;27;45311;-68
2021/10/05 10:06:35;;;;;;;;;4.75;3.00;;;;;15.49;94.84;100147.38;5077298;27;45470;-68
2021/10/05 10:09:04;;;;;;;;;1.00;1.00;;;;;15.59;95.15;100158.19;5081356;27;45433;-68
2021/10/05 10:11:30;;;;;;;;;3.25;1.00;;;;;15.65;94.03;100170.13;5081170;27;45619;-69
2021/10/05 10:13:57;;;;;;;;;3.75;3.50;;;;;15.72;94.47;100167.03;5081207;27;45537;-64
2021/10/05 10:16:23;;;;;;;;;7.00;3.00;;;;;15.82;94.10;100175.22;5080727;27;45568;-61
2021/10/05 10:18:51;;;;;;;;;2.25;2.25;;;;;15.88;92.78;100180.09;5080452;28;45874;-61
2021/10/05 10:21:25;;;;;;;;;2.00;2.00;;;;;15.93;92.14;100185.91;5080880;27;45643;-61
2021/10/05 10:24:07;;;;;;;;;6.00;2.75;;;;;15.98;92.95;100185.63;5080599;27;45463;-62
2021/10/05 10:26:33;;;;;;;;;2.00;2.00;;;;;16.01;92.31;100191.53;5068178;28;45416;-61
2021/10/05 10:28:59;;;;;;;;;4.50;2.50;;;;;16.00;91.00;100202.97;5080937;27;46255;-61
2021/10/05 10:31:31;;;;;;;;;1.25;1.25;;;;;16.05;90.40;100194.84;5080385;27;45375;-61
2021/10/05 10:33:57;;;;;;;;;3.50;3.50;;;;;16.16;91.48;100200.28;5079475;28;45516;-61
2021/10/05 10:36:30;;;;;;;;;6.00;4.50;;;;;16.32;91.56;100202.84;5081029;27;45292;-62
2021/10/05 10:39:12;;;;;;;;;1.00;1.00;;;;;16.49;88.90;100201.84;5080260;27;47033;-63
2021/10/05 10:41:40;;;;;;;;;2.75;2.50;;;;;16.59;87.36;100205.59;5081075;27;45230;-67
2021/10/05 10:44:07;;;;;;;;;2.00;1.50;;;;;16.71;88.85;100213.59;5079408;27;45345;-60
2021/10/05 10:46:38;;;;;;;;;2.75;2.00;;;;;16.80;86.88;100217.41;5070359;28;45334;-60
2021/10/05 10:49:12;;;;;;;;;2.50;1.00;;;;;16.82;85.19;100230.44;5080248;27;46202;-60
2021/10/05 10:51:40;;;;;;;;;1.00;1.00;;;;;16.80;85.92;100233.16;5079875;27;45251;-61
2021/10/05 10:54:12;;;;;;;;;1.25;0.75;;;;;16.87;83.76;100234.50;5079530;27;45456;-60
2021/10/05 10:56:37;;;;;;;;;1.75;1.50;;;;;17.00;84.94;100237.19;5077763;27;45512;-60
2021/10/05 10:59:08;;;;;;;;;2.00;0.50;;;;;17.08;83.91;100245.44;5096365;27;45995;-60
2021/10/05 11:01:45;;;;;;;;;1.25;1.25;;;;;17.12;82.76;100241.69;5080622;27;45339;-62
2021/10/05 11:04:13;;;;;;;;;2.75;1.00;;;;;17.38;80.89;100247.06;5080106;27;45257;-61
2021/10/05 11:06:43;;;;;;;;;2.50;1.50;;;;;17.47;80.08;100236.84;5076116;27;45559;-60
2021/10/05 11:09:08;;;;;;;;;3.75;3.00;;;;;17.41;80.71;100241.63;5078510;28;46369;-73
2021/10/05 11:11:41;;;;;;;;;3.50;2.00;;;;;17.33;79.45;100256.09;5080201;27;45268;-72
2021/10/05 11:14:09;;;;;;;;;0.25;0.25;;;;;17.26;78.11;100252.19;5081021;27;45398;-66
2021/10/05 11:16:37;;;;;;;;;5.25;2.75;;;;;17.20;77.46;100260.41;5079832;27;45554;-63
2021/10/05 11:19:26;;;;;;;;;5.00;2.50;;;;;17.39;76.89;100261.88;5079962;27;46144;-63
2021/10/05 11:21:51;;;;;;;;;1.00;1.00;;;;;17.59;77.54;100262.31;5080295;27;45645;-65